New York, Iowa
Current Conditions -  °F | °C
As of 12:55 PM on Friday 24 Oct 2014 (Local Time) from KCNC Reporting Station
Haze Haze  
Wind Chill: 61°   Ceiling: 500
Heat Index: 61°   Visibility: 4mi
Dew Point: 59°   Wind: 16mph
Humidity: 94%   Direction: 190°S
Pressure: 29.96"   Gusts: NA
Location:  40.9063°N, 93.1553°W
Report Text: KCNC 241755Z AUTO 19014KT 4SM BR OVC005 16/15 A2996 RMK AO2
Loading
Personal Weather Stations






























Interactive Weather Map
Tropical Storm Tracking
New forecast layout! Learn more

10-Day Weather Forecast

Advertisements
Track Severe Weather on mobile